• Join FlightAware (Why Join?)
  • Login
  • US Flag 
02:22AM EST


 

Airport Tracker/Info


-or-


 

Live Flight TrackerFlight Track Log ✈ ASQ5903 ✈ 13-May-2013 ✈ KLIT - KORD

Flight Track Log - Related Links

Times and Time Zones

All times are in EDT time to prevent confusion due to time zone crossing. See the ASQ5903 flight status page for this flight to view local times or setup timezone preferences in your user account.

Time Position Orientation Groundspeed Altitude Reporting Facility
EDT Latitude Longitude Course Direction KTS MPH feet Rate Location/Type
11:43AM 34.7083 -92.3125 266° West 193 222 3,000  Level Memphis Center
11:44AM 34.7469 -92.3792 305° West 255 293 4,000 1,960 Climbing Memphis Center
11:45AM 34.8317 -92.4217 338° Northwest 225 259 7,900 2,376 Climbing Memphis Center
11:46AM 34.9011 -92.3953 17° North 225 259 9,900 1,700 Climbing Memphis Center
11:47AM 34.9767 -92.3669 17° North 249 287 11,300 1,350 Climbing Memphis Center
11:48AM 35.0583 -92.3383 16° North 274 315 12,600 1,500 Climbing Memphis Center
11:49AM 35.1381 -92.3097 16° North 291 335 14,300 1,500 Climbing Memphis Center
11:50AM 35.2222 -92.2786 17° North 302 348 15,600 1,200 Climbing Memphis Center
11:51AM 35.3081 -92.2500 15° North 302 348 16,700 1,100 Climbing Memphis Center
11:52AM 35.3983 -92.2164 17° North 313 360 17,800 1,200 Climbing Memphis Center
11:53AM 35.4883 -92.1853 16° North 323 372 19,100 1,500 Climbing Memphis Center
11:54AM 35.5744 -92.1514 18° North 323 372 20,800 1,400 Climbing Memphis Center
11:55AM 35.6603 -92.1228 15° North 318 366 21,900 1,000 Climbing Memphis Center
11:56AM 35.7525 -92.0889 17° North 328 377 22,800 950 Climbing Memphis Center
11:57AM 35.8469 -92.0550 16° North 339 390 23,800 1,000 Climbing Memphis Center
11:58AM 35.9433 -92.0183 17° North 344 396 24,800 1,000 Climbing Memphis Center
11:59AM 36.0314 -91.9817 19° North 344 396 25,800 900 Climbing Memphis Center
12:00PM 36.1214 -91.9528 15° North 344 396 26,600 950 Climbing Memphis Center
12:01PM 36.2281 -91.9136 16° North 359 413 27,700 1,000 Climbing Memphis Center
12:02PM 36.3225 -91.8792 16° North 359 413 28,600 950 Climbing Memphis Center
12:03PM 36.4144 -91.8450 17° North 359 413 29,600 1,006 Climbing Memphis Center
12:05PM 36.5567 -91.7892 18° North 349 402 31,200 1,070 Climbing Kansas City Center
12:06PM 36.6522 -91.7542 16° North 345 397 32,400 1,113 Climbing Kansas City Center
12:07PM 36.7428 -91.7206 17° North 340 391 33,500 1,113 Climbing Kansas City Center
12:08PM 36.8306 -91.6869 17° North 333 383 34,700 726 Climbing Kansas City Center
12:09PM 36.9169 -91.6569 16° North 325 374 35,000 145 Climbing Kansas City Center
12:10PM 37.0083 -91.6225 17° North 333 383 35,000  Level Kansas City Center
12:11PM 37.1258 -91.5758 18° North 359 413 35,000  Level Kansas City Center
12:12PM 37.2281 -91.5367 17° North 377 434 35,000  Level Kansas City Center
12:13PM 37.3303 -91.4992 16° North 382 440 35,000  Level Kansas City Center
12:14PM 37.4342 -91.4594 17° North 386 444 35,000  Level Kansas City Center
12:15PM 37.5394 -91.4206 16° North 391 450 35,000  Level Kansas City Center
12:16PM 37.6442 -91.3794 17° North 393 452 35,000  Level Kansas City Center
12:17PM 37.7692 -91.3317 17° North 392 451 35,000  Level Kansas City Center
12:18PM 37.8731 -91.2928 16° North 390 449 35,000  Level Kansas City Center
12:19PM 37.9747 -91.2539 17° North 385 443 35,000  Level Kansas City Center
12:20PM 38.0764 -91.2139 17° North 383 441 35,000  Level Kansas City Center
12:21PM 38.1831 -91.1725 17° North 382 440 35,000  Level Kansas City Center
12:22PM 38.2844 -91.1331 17° North 382 440 35,000  Level Kansas City Center
12:23PM 38.3861 -91.0933 17° North 381 438 35,000  Level Kansas City Center
12:24PM 38.4897 -91.0767 North 378 435 35,000  Level Kansas City Center
12:25PM 38.5931 -91.0953 352° North 372 428 35,000  Level Kansas City Center
12:26PM 38.7161 -91.1278 348° North 374 430 35,000  Level Kansas City Center
12:27PM 38.8178 -91.1550 348° North 373 429 35,000 -387 Level Kansas City Center
12:28PM 38.9186 -91.1819 348° North 371 427 34,200 -871 Descending Kansas City Center
12:29PM 39.0181 -91.2058 349° North 365 420 33,200 -581 Descending Kansas City Center
12:30PM 39.1136 -91.2264 351° North 354 407 33,000 -97 Descending Kansas City Center
12:32PM 39.2086 -91.2486 350° North 347 399 33,000  Level Kansas City Center
12:33PM 39.3233 -91.1900 22° Northeast 381 438 33,000  Level Kansas City Center
12:34PM 39.4128 -91.1142 33° Northeast 382 440 33,000  Level Kansas City Center
12:35PM 39.5044 -91.0367 33° Northeast 386 444 33,000  Level Kansas City Center
12:36PM 39.5961 -90.9581 33° Northeast 391 450 33,000  Level Kansas City Center
12:37PM 39.6889 -90.8797 33° Northeast 395 455 33,000  Level Kansas City Center
12:38PM 39.7794 -90.8028 33° Northeast 398 458 33,000  Level Kansas City Center
12:39PM 39.8900 -90.7067 34° Northeast 399 459 33,000  Level Kansas City Center
12:40PM 39.9828 -90.6267 33° Northeast 399 459 33,000  Level Kansas City Center
12:41PM 40.0756 -90.5467 33° Northeast 399 459 33,000  Level Kansas City Center
12:42PM 40.1667 -90.4669 34° Northeast 395 455 33,000  Level Kansas City Center
12:42PM 40.2039 -90.4356 33° Northeast 397 457 33,000 -66 Level Chicago Center
12:43PM 40.3131 -90.3400 34° Northeast 394 453 32,900 -532 Descending Chicago Center
12:44PM 40.4022 -90.2625 33° Northeast 386 444 31,900 -919 Descending Chicago Center
12:45PM 40.4875 -90.1864 34° Northeast 374 430 31,000 -435 Descending Chicago Center
12:46PM 40.5761 -90.1083 34° Northeast 382 440 31,000  Level Chicago Center
12:47PM 40.6664 -90.0292 34° Northeast 389 448 31,000 -435 Level Chicago Center
12:49PM 40.7769 -89.9333 33° Northeast 398 458 30,100 -1,016 Descending Chicago Center
12:50PM 40.8694 -89.8486 35° Northeast 406 467 28,900 -1,306 Descending Chicago Center
12:51PM 40.9633 -89.7667 33° Northeast 404 465 27,400 -1,403 Descending Chicago Center
12:52PM 41.0478 -89.6903 34° Northeast 404 465 26,000 -1,839 Descending Chicago Center
12:53PM 41.1589 -89.5856 35° Northeast 408 470 23,600 -2,177 Descending Chicago Center
12:54PM 41.2169 -89.4500 60° Northeast 414 476 21,500 -1,935 Descending Chicago Center
12:55PM 41.2708 -89.3147 62° Northeast 415 478 19,600 -1,839 Descending Chicago Center
12:56PM 41.3281 -89.1725 62° Northeast 410 472 17,700 -1,680 Descending Chicago Center
12:57PM 41.3781 -89.0453 62° Northeast 393 452 16,100 -1,776 Descending Chicago Center
12:58PM 41.4294 -88.9172 62° Northeast 395 455 14,000 -2,177 Descending Chicago Center
12:59PM 41.4789 -88.7942 62° Northeast 381 438 11,600 -1,452 Descending Chicago Center
01:00PM 41.5333 -88.6544 62° Northeast 357 411 11,000 -242 Descending Chicago Center
01:01PM 41.5789 -88.5375 62° Northeast 357 411 11,100 -242 Climbing Chicago Center
01:02PM 41.6283 -88.4325 58° Northeast 335 386 10,500 -1,016 Descending Chicago Center
01:03PM 41.6769 -88.3489 52° Northeast 290 334 9,000 -1,597 Descending Chicago Center
01:04PM 41.7231 -88.2692 52° Northeast 274 315 7,200 -968 Descending Chicago Center
01:05PM 41.7683 -88.1933 51° Northeast 262 302 7,000 -96 Descending Chicago Center
01:06PM 41.8133 -88.1153 52° Northeast 265 305 7,000  Level Chicago Center
01:07PM 41.8636 -88.0253 53° Northeast 257 296 7,000  Level Chicago Center
01:08PM 41.8839 -87.9519 70° East 225 259 7,000  Level Chicago Center
01:09PM 41.8833 -87.8833 91° East 215 247 7,000 -57 Level Chicago TRACON
01:10PM 41.8833 -87.8000 90° East 222 255 6,900 -550 Descending Chicago TRACON
01:11PM 41.8833 -87.7167 90° East 204 235 5,900 -950 Descending Chicago TRACON
01:12PM 41.9000 -87.6667 66° East 223 257 5,000 -1,053 Descending Chicago TRACON
01:13PM 41.9333 -87.7000 323° Northwest 188 216 3,900 -850 Descending Chicago TRACON
01:14PM 41.9500 -87.7500 294° West 172 198 3,300 -667 Descending Chicago TRACON
01:15PM 41.9667 -87.8167 289° West 145 167 2,500 -1,148 Descending Chicago TRACON
01:16PM 41.9667 -87.8500 270° West 130 150 1,100 -1,527 Descending Chicago TRACON
01:18PM 41.9667 -87.9000 314° West  Level FlightAware Approximate